Airfield :
LOGIN :

Register | Disclaimer

   EN    FR    IT 

 










Legend :    VFR   Marginal VFR   IFR   Intensive IFR   Very Intensive IFR
Visi :
Ceiling :
>= 8 km
>= 3000ft
5 to 8 km
1000 to 3000 ft
1500m to 5 km
500 to 1000 ft
800 to 1500m
200 to 500 ft
< 800m
< 200 ft
Symbols :   Thunderstorms  Fog  Heavy snow  Heavy precipitations  Wind > 20 kt
SIGMETs :     Misc.  Thunderstorms  Icing  Turbulence  Mountain Waves  Volcanic Ashes






- Airport Elevation : 1036 ft
- IATA code : CLJ


LRCL - Cluj-Napoca International

CURRENT METAR :
  • 151830Z 03008KT CAVOK 04/00 Q1018

EXPIRED METARs :
  • 151800Z 07003KT CAVOK 02/M00 Q1018
  • 151730Z 05005KT CAVOK 03/00 Q1018
  • 151700Z 06003KT CAVOK 03/00 Q1018
  • 151630Z 08003KT CAVOK 03/01 Q1018
  • 151600Z 07004KT CAVOK 03/01 Q1018

TAF TAF LRCL
Valid from the 15 at 18:00 until the 16 at 03:00 UTC


151700Z 1518/1603 09007KT CAVOK
BECMG 1522/1524 3000 BR
TEMPO 1600/1603 1500 BR BKN005



MET'MAP, your aeronautical weather chart ! - Copyright ORBIFLY December 2007 - Disclaimer

ORBIFLY MET'MAP TEAM :

Programming & Development : Alexandra Zaïnal
Concept & original design : Baudouin d'Aumeries
Assistance for programming : Marc-Olivier Méhu
Technical & hardware support : Manuel Goepfert

Contact : metmap@orbifly.com




SOURCES & CREDITS :

   NOAA